aviador You're here:

KNCA Decoded Metar

JACKSONVILLE in NC, USA
Report Time2017-12-11 04:56:00
UTC Time2017-12-11 05:48:37
Flight Rules vfr VFR
Wind210° at 03 kt
W.Decomp.*RWY 23: 2.9 kt HW 0.6 kt LCW
RWY 19: 2.6 kt HW 1.4 kt RCW
W.Rank210° ranks 10
Current wind is below 210° avg. (6.0)
Visibility9999 m
Phenomena:N/A
Clouds:N/A
Expected CloudBase > 1,600 ft AGL from Temp-Dew spread
CeilingNone
Temp02°C (ISA -13)
Dew Point-2°C (75% RH)
AAT-1.3°C
QNH1023 hPa
Density Alt-1,818 ft
Elevation26 ft
Report Wrong Elevation
Raw Report
KNCA 110456Z AUTO 21003KT 10SM CLR 02/M02 A3020 RMK AO2 SLP228
T00171022 400780000=

Extra information for KNCA:More info

Metar Taf Metar & Taf Last 4 Metars F.Rules Stats Wind Profile Meteogram Temp Stats Airport Information Weather charts Add Link Nearby VenuesMetar ALERT Operation Metar Decoded Social comments

AIRNAV info for KNCA